Saint Charles, Idaho
Current Conditions -  °F | °C
As of 1:51 AM on Wednesday 26 Nov 2014 (Local Time) from KLGU Reporting Station
Overcast Overcast  
Wind Chill: 47°   Ceiling: 5000
Heat Index: 47°   Visibility: 10mi
Dew Point: 34°   Wind: 3mph
Humidity: 61%   Direction: 20°NNE
Pressure: 30.29"   Gusts: NA
Location:  42.11°N, 111.39°W
Report Text: KLGU 260851Z AUTO 02003KT 10SM OVC050 08/01 A3029 RMK AO2 SLP251 T00830011 51007
Loading
Personal Weather Stations






























Interactive Weather Map New forecast layout! Learn more

10-Day Weather Forecast

Advertisements
Track Severe Weather on mobile